sensor_id;sensor_type;location;lat;lon;timestamp;temperature;humidity
152;DHT22;68;48.792;9.164;2022-09-03T00:01:15;18.90;72.10
152;DHT22;68;48.792;9.164;2022-09-03T00:03:47;18.90;70.80
152;DHT22;68;48.792;9.164;2022-09-03T00:06:19;19.10;69.00
152;DHT22;68;48.792;9.164;2022-09-03T00:08:56;19.10;69.10
152;DHT22;68;48.792;9.164;2022-09-03T00:11:26;19.20;68.80
152;DHT22;68;48.792;9.164;2022-09-03T00:13:59;19.10;69.20
152;DHT22;68;48.792;9.164;2022-09-03T00:16:33;19.20;69.30
152;DHT22;68;48.792;9.164;2022-09-03T00:19:03;19.30;69.00
152;DHT22;68;48.792;9.164;2022-09-03T00:21:36;19.40;68.90
152;DHT22;68;48.792;9.164;2022-09-03T00:24:08;19.20;69.40
152;DHT22;68;48.792;9.164;2022-09-03T00:26:36;19.00;68.80
152;DHT22;68;48.792;9.164;2022-09-03T00:29:08;18.80;70.10
152;DHT22;68;48.792;9.164;2022-09-03T00:31:39;18.70;69.10
152;DHT22;68;48.792;9.164;2022-09-03T00:34:11;18.60;70.20
152;DHT22;68;48.792;9.164;2022-09-03T00:36:43;18.40;71.60
152;DHT22;68;48.792;9.164;2022-09-03T00:39:14;18.60;71.10
152;DHT22;68;48.792;9.164;2022-09-03T00:41:51;18.90;70.40
152;DHT22;68;48.792;9.164;2022-09-03T00:44:54;19.00;69.50
152;DHT22;68;48.792;9.164;2022-09-03T00:47:30;19.20;69.30
152;DHT22;68;48.792;9.164;2022-09-03T00:50:08;19.30;68.80
152;DHT22;68;48.792;9.164;2022-09-03T00:52:46;19.50;68.10
152;DHT22;68;48.792;9.164;2022-09-03T00:55:27;19.40;67.90
152;DHT22;68;48.792;9.164;2022-09-03T00:58:12;19.40;67.70
152;DHT22;68;48.792;9.164;2022-09-03T01:00:41;19.60;67.20
152;DHT22;68;48.792;9.164;2022-09-03T01:03:11;19.60;67.00
152;DHT22;68;48.792;9.164;2022-09-03T01:05:54;19.40;67.80
152;DHT22;68;48.792;9.164;2022-09-03T01:08:37;19.40;67.90
152;DHT22;68;48.792;9.164;2022-09-03T01:11:17;19.10;68.20
152;DHT22;68;48.792;9.164;2022-09-03T01:13:49;18.90;68.80
152;DHT22;68;48.792;9.164;2022-09-03T01:16:24;18.80;69.20
152;DHT22;68;48.792;9.164;2022-09-03T01:18:59;19.00;69.00
152;DHT22;68;48.792;9.164;2022-09-03T01:21:53;19.10;69.40
152;DHT22;68;48.792;9.164;2022-09-03T01:27:35;19.70;66.90
152;DHT22;68;48.792;9.164;2022-09-03T01:30:08;19.50;67.40
152;DHT22;68;48.792;9.164;2022-09-03T01:32:46;19.40;68.00
152;DHT22;68;48.792;9.164;2022-09-03T01:35:22;19.30;68.10
152;DHT22;68;48.792;9.164;2022-09-03T01:38:00;19.30;68.20
152;DHT22;68;48.792;9.164;2022-09-03T01:40:37;19.30;68.30
152;DHT22;68;48.792;9.164;2022-09-03T01:43:21;19.00;68.40
152;DHT22;68;48.792;9.164;2022-09-03T01:45:53;19.10;69.30
152;DHT22;68;48.792;9.164;2022-09-03T01:48:34;19.30;68.80
152;DHT22;68;48.792;9.164;2022-09-03T01:51:11;19.50;69.50
152;DHT22;68;48.792;9.164;2022-09-03T01:54:02;19.50;69.00
152;DHT22;68;48.792;9.164;2022-09-03T01:56:44;19.50;69.30
152;DHT22;68;48.792;9.164;2022-09-03T01:59:21;19.80;69.00
152;DHT22;68;48.792;9.164;2022-09-03T02:01:54;19.90;68.60
152;DHT22;68;48.792;9.164;2022-09-03T02:04:25;19.80;68.10
152;DHT22;68;48.792;9.164;2022-09-03T02:06:55;19.60;69.20
152;DHT22;68;48.792;9.164;2022-09-03T02:09:23;19.70;69.10
152;DHT22;68;48.792;9.164;2022-09-03T02:11:54;19.80;68.80
152;DHT22;68;48.792;9.164;2022-09-03T02:14:22;19.90;68.50
152;DHT22;68;48.792;9.164;2022-09-03T02:16:52;19.80;68.80
152;DHT22;68;48.792;9.164;2022-09-03T02:19:19;19.70;69.30
152;DHT22;68;48.792;9.164;2022-09-03T02:21:51;19.70;69.10
152;DHT22;68;48.792;9.164;2022-09-03T02:24:18;19.70;69.30
152;DHT22;68;48.792;9.164;2022-09-03T02:26:45;19.70;70.20
152;DHT22;68;48.792;9.164;2022-09-03T02:29:13;19.80;69.70
152;DHT22;68;48.792;9.164;2022-09-03T02:31:41;19.70;69.90
152;DHT22;68;48.792;9.164;2022-09-03T02:34:10;19.70;69.60
152;DHT22;68;48.792;9.164;2022-09-03T02:36:40;19.70;69.50
152;DHT22;68;48.792;9.164;2022-09-03T02:39:07;19.80;69.40
152;DHT22;68;48.792;9.164;2022-09-03T02:41:34;19.80;69.20
152;DHT22;68;48.792;9.164;2022-09-03T02:44:03;19.80;69.50
152;DHT22;68;48.792;9.164;2022-09-03T02:46:38;19.60;70.50
152;DHT22;68;48.792;9.164;2022-09-03T02:49:06;19.20;72.10
152;DHT22;68;48.792;9.164;2022-09-03T02:51:37;18.80;71.60
152;DHT22;68;48.792;9.164;2022-09-03T02:54:05;18.80;72.40
152;DHT22;68;48.792;9.164;2022-09-03T02:56:32;18.90;71.80
152;DHT22;68;48.792;9.164;2022-09-03T02:58:58;19.00;71.00
152;DHT22;68;48.792;9.164;2022-09-03T03:01:25;19.10;71.10
152;DHT22;68;48.792;9.164;2022-09-03T03:03:53;19.00;72.60
152;DHT22;68;48.792;9.164;2022-09-03T03:06:20;18.60;72.20
152;DHT22;68;48.792;9.164;2022-09-03T03:08:49;18.70;73.70
152;DHT22;68;48.792;9.164;2022-09-03T03:11:17;18.80;73.30
152;DHT22;68;48.792;9.164;2022-09-03T03:13:45;18.70;75.30
152;DHT22;68;48.792;9.164;2022-09-03T03:16:13;18.40;74.80
152;DHT22;68;48.792;9.164;2022-09-03T03:18:40;18.20;74.70
152;DHT22;68;48.792;9.164;2022-09-03T03:21:08;18.20;75.30
152;DHT22;68;48.792;9.164;2022-09-03T03:23:36;18.40;74.50
152;DHT22;68;48.792;9.164;2022-09-03T03:26:06;18.40;74.60
152;DHT22;68;48.792;9.164;2022-09-03T03:28:34;18.50;74.20
152;DHT22;68;48.792;9.164;2022-09-03T03:31:05;18.70;74.10
152;DHT22;68;48.792;9.164;2022-09-03T03:33:32;18.80;73.00
152;DHT22;68;48.792;9.164;2022-09-03T03:36:03;18.90;72.30
152;DHT22;68;48.792;9.164;2022-09-03T03:38:30;18.60;73.20
152;DHT22;68;48.792;9.164;2022-09-03T03:40:57;18.60;73.70
152;DHT22;68;48.792;9.164;2022-09-03T03:43:25;18.60;73.40
152;DHT22;68;48.792;9.164;2022-09-03T03:45:56;18.70;73.90
152;DHT22;68;48.792;9.164;2022-09-03T03:48:23;18.80;73.00
152;DHT22;68;48.792;9.164;2022-09-03T03:50:51;18.70;73.20
152;DHT22;68;48.792;9.164;2022-09-03T03:53:18;18.60;73.70
152;DHT22;68;48.792;9.164;2022-09-03T03:55:54;18.60;73.60
152;DHT22;68;48.792;9.164;2022-09-03T03:58:21;18.80;73.30
152;DHT22;68;48.792;9.164;2022-09-03T04:00:50;18.90;73.10
152;DHT22;68;48.792;9.164;2022-09-03T04:03:16;18.80;74.30
152;DHT22;68;48.792;9.164;2022-09-03T04:05:53;19.00;73.50
152;DHT22;68;48.792;9.164;2022-09-03T04:08:20;19.00;74.10
152;DHT22;68;48.792;9.164;2022-09-03T04:10:47;18.90;74.20
152;DHT22;68;48.792;9.164;2022-09-03T04:13:14;19.00;73.30
152;DHT22;68;48.792;9.164;2022-09-03T04:15:41;18.90;73.40
152;DHT22;68;48.792;9.164;2022-09-03T04:18:09;18.70;74.30
152;DHT22;68;48.792;9.164;2022-09-03T04:20:36;18.80;74.30
152;DHT22;68;48.792;9.164;2022-09-03T04:23:04;19.00;73.90
152;DHT22;68;48.792;9.164;2022-09-03T04:25:31;19.00;74.30
152;DHT22;68;48.792;9.164;2022-09-03T04:27:58;18.80;76.20
152;DHT22;68;48.792;9.164;2022-09-03T04:30:24;18.80;76.00
152;DHT22;68;48.792;9.164;2022-09-03T04:32:52;18.50;76.20
152;DHT22;68;48.792;9.164;2022-09-03T04:35:21;18.60;76.30
152;DHT22;68;48.792;9.164;2022-09-03T04:37:48;18.70;76.30
152;DHT22;68;48.792;9.164;2022-09-03T04:40:15;18.70;76.60
152;DHT22;68;48.792;9.164;2022-09-03T04:42:42;18.70;76.00
152;DHT22;68;48.792;9.164;2022-09-03T04:45:09;18.60;76.60
152;DHT22;68;48.792;9.164;2022-09-03T04:47:40;18.50;77.10
152;DHT22;68;48.792;9.164;2022-09-03T04:50:07;18.50;78.20
152;DHT22;68;48.792;9.164;2022-09-03T04:52:36;18.40;78.20
152;DHT22;68;48.792;9.164;2022-09-03T04:55:03;18.30;78.20
152;DHT22;68;48.792;9.164;2022-09-03T04:57:32;18.10;79.50
152;DHT22;68;48.792;9.164;2022-09-03T05:00:03;18.10;79.90
152;DHT22;68;48.792;9.164;2022-09-03T05:02:30;18.00;80.40
152;DHT22;68;48.792;9.164;2022-09-03T05:04:57;17.90;81.10
152;DHT22;68;48.792;9.164;2022-09-03T05:07:24;18.00;80.90
152;DHT22;68;48.792;9.164;2022-09-03T05:09:55;18.00;82.20
152;DHT22;68;48.792;9.164;2022-09-03T05:12:23;17.90;80.80
152;DHT22;68;48.792;9.164;2022-09-03T05:14:49;17.90;80.70
152;DHT22;68;48.792;9.164;2022-09-03T05:17:16;18.00;80.80
152;DHT22;68;48.792;9.164;2022-09-03T05:19:43;18.20;80.60
152;DHT22;68;48.792;9.164;2022-09-03T05:22:10;18.30;80.70
152;DHT22;68;48.792;9.164;2022-09-03T05:24:36;18.40;79.70
152;DHT22;68;48.792;9.164;2022-09-03T05:27:05;18.60;78.80
152;DHT22;68;48.792;9.164;2022-09-03T05:29:32;18.40;79.90
152;DHT22;68;48.792;9.164;2022-09-03T05:31:58;18.20;80.30
152;DHT22;68;48.792;9.164;2022-09-03T05:34:25;18.40;80.50
152;DHT22;68;48.792;9.164;2022-09-03T05:36:52;18.50;79.90
152;DHT22;68;48.792;9.164;2022-09-03T05:39:23;18.60;79.90
152;DHT22;68;48.792;9.164;2022-09-03T05:41:49;18.70;79.60
152;DHT22;68;48.792;9.164;2022-09-03T05:44:19;18.90;78.90
152;DHT22;68;48.792;9.164;2022-09-03T05:46:47;19.10;78.00
152;DHT22;68;48.792;9.164;2022-09-03T05:49:16;19.20;77.50
152;DHT22;68;48.792;9.164;2022-09-03T05:51:43;19.10;76.60
152;DHT22;68;48.792;9.164;2022-09-03T05:54:10;18.90;77.50
152;DHT22;68;48.792;9.164;2022-09-03T05:56:38;18.90;78.30
152;DHT22;68;48.792;9.164;2022-09-03T05:59:07;18.40;78.80
152;DHT22;68;48.792;9.164;2022-09-03T06:01:37;18.70;78.90
152;DHT22;68;48.792;9.164;2022-09-03T06:04:05;18.80;79.10
152;DHT22;68;48.792;9.164;2022-09-03T06:06:33;18.70;79.50
152;DHT22;68;48.792;9.164;2022-09-03T06:09:02;18.70;79.70
152;DHT22;68;48.792;9.164;2022-09-03T06:11:30;18.60;79.30
152;DHT22;68;48.792;9.164;2022-09-03T06:13:58;18.30;81.30
152;DHT22;68;48.792;9.164;2022-09-03T06:16:26;18.40;81.20
152;DHT22;68;48.792;9.164;2022-09-03T06:18:54;18.50;80.50
152;DHT22;68;48.792;9.164;2022-09-03T06:21:22;18.40;81.80
152;DHT22;68;48.792;9.164;2022-09-03T06:23:49;18.50;81.40
152;DHT22;68;48.792;9.164;2022-09-03T06:26:17;18.70;80.80
152;DHT22;68;48.792;9.164;2022-09-03T06:28:45;18.70;80.80
152;DHT22;68;48.792;9.164;2022-09-03T06:31:14;18.80;80.60
152;DHT22;68;48.792;9.164;2022-09-03T06:33:42;19.00;80.10
152;DHT22;68;48.792;9.164;2022-09-03T06:36:12;19.20;79.50
152;DHT22;68;48.792;9.164;2022-09-03T06:38:40;19.40;79.50
152;DHT22;68;48.792;9.164;2022-09-03T06:41:09;19.50;79.40
152;DHT22;68;48.792;9.164;2022-09-03T06:43:39;19.50;79.90
152;DHT22;68;48.792;9.164;2022-09-03T06:46:09;19.60;79.40
152;DHT22;68;48.792;9.164;2022-09-03T06:48:36;19.50;79.80
152;DHT22;68;48.792;9.164;2022-09-03T06:51:05;19.50;80.50
152;DHT22;68;48.792;9.164;2022-09-03T06:53:35;19.50;80.20
152;DHT22;68;48.792;9.164;2022-09-03T06:56:04;19.40;80.30
152;DHT22;68;48.792;9.164;2022-09-03T06:58:33;19.20;81.50
152;DHT22;68;48.792;9.164;2022-09-03T07:01:01;19.30;81.40
152;DHT22;68;48.792;9.164;2022-09-03T07:03:28;19.50;80.80
152;DHT22;68;48.792;9.164;2022-09-03T07:05:59;19.50;81.20
152;DHT22;68;48.792;9.164;2022-09-03T07:08:26;19.60;81.30
152;DHT22;68;48.792;9.164;2022-09-03T07:10:55;19.60;81.60
152;DHT22;68;48.792;9.164;2022-09-03T07:13:22;19.70;81.10
152;DHT22;68;48.792;9.164;2022-09-03T07:15:59;19.70;80.80
152;DHT22;68;48.792;9.164;2022-09-03T07:18:26;19.70;80.80
152;DHT22;68;48.792;9.164;2022-09-03T07:20:57;19.80;81.10
152;DHT22;68;48.792;9.164;2022-09-03T07:23:24;19.80;82.00
152;DHT22;68;48.792;9.164;2022-09-03T07:25:53;19.90;82.20
152;DHT22;68;48.792;9.164;2022-09-03T07:28:21;19.60;83.50
152;DHT22;68;48.792;9.164;2022-09-03T07:30:49;19.30;85.30
152;DHT22;68;48.792;9.164;2022-09-03T07:33:16;19.30;85.20
152;DHT22;68;48.792;9.164;2022-09-03T07:35:43;19.20;84.90
152;DHT22;68;48.792;9.164;2022-09-03T07:38:10;19.10;86.80
152;DHT22;68;48.792;9.164;2022-09-03T07:40:37;19.40;86.20
152;DHT22;68;48.792;9.164;2022-09-03T07:43:04;19.60;84.60
152;DHT22;68;48.792;9.164;2022-09-03T07:45:32;19.50;83.30
152;DHT22;68;48.792;9.164;2022-09-03T07:47:59;19.50;84.50
152;DHT22;68;48.792;9.164;2022-09-03T07:50:26;19.70;84.00
152;DHT22;68;48.792;9.164;2022-09-03T07:52:55;20.00;83.30
152;DHT22;68;48.792;9.164;2022-09-03T07:55:22;20.10;81.40
152;DHT22;68;48.792;9.164;2022-09-03T07:57:53;20.20;81.00
152;DHT22;68;48.792;9.164;2022-09-03T08:00:20;20.10;80.70
152;DHT22;68;48.792;9.164;2022-09-03T08:02:50;20.10;80.40
152;DHT22;68;48.792;9.164;2022-09-03T08:05:17;20.20;81.90
152;DHT22;68;48.792;9.164;2022-09-03T08:07:45;20.40;81.70
152;DHT22;68;48.792;9.164;2022-09-03T08:10:11;20.50;81.40
152;DHT22;68;48.792;9.164;2022-09-03T08:12:39;20.40;81.90
152;DHT22;68;48.792;9.164;2022-09-03T08:15:06;20.30;83.20
152;DHT22;68;48.792;9.164;2022-09-03T08:17:34;20.40;83.50
152;DHT22;68;48.792;9.164;2022-09-03T08:20:02;20.30;83.20
152;DHT22;68;48.792;9.164;2022-09-03T08:22:30;20.20;80.90
152;DHT22;68;48.792;9.164;2022-09-03T08:24:56;19.90;80.30
152;DHT22;68;48.792;9.164;2022-09-03T08:27:24;20.10;81.50
152;DHT22;68;48.792;9.164;2022-09-03T08:29:52;20.30;81.00
152;DHT22;68;48.792;9.164;2022-09-03T08:32:19;20.20;80.90
152;DHT22;68;48.792;9.164;2022-09-03T08:34:45;20.50;81.50
152;DHT22;68;48.792;9.164;2022-09-03T08:37:13;20.80;79.60
152;DHT22;68;48.792;9.164;2022-09-03T08:39:40;21.30;79.40
152;DHT22;68;48.792;9.164;2022-09-03T08:42:24;21.30;77.80
152;DHT22;68;48.792;9.164;2022-09-03T08:44:55;21.40;78.20
152;DHT22;68;48.792;9.164;2022-09-03T08:47:27;21.40;79.00
152;DHT22;68;48.792;9.164;2022-09-03T08:49:57;21.40;78.80
152;DHT22;68;48.792;9.164;2022-09-03T08:52:30;21.30;79.10
152;DHT22;68;48.792;9.164;2022-09-03T08:55:10;21.30;78.30
152;DHT22;68;48.792;9.164;2022-09-03T08:57:42;21.20;79.00
152;DHT22;68;48.792;9.164;2022-09-03T09:00:12;21.00;78.60
152;DHT22;68;48.792;9.164;2022-09-03T09:03:12;21.10;78.70
152;DHT22;68;48.792;9.164;2022-09-03T09:05:46;21.20;79.20
152;DHT22;68;48.792;9.164;2022-09-03T09:08:23;21.20;80.20
152;DHT22;68;48.792;9.164;2022-09-03T09:10:59;21.10;79.60
152;DHT22;68;48.792;9.164;2022-09-03T09:13:35;20.90;80.70
152;DHT22;68;48.792;9.164;2022-09-03T09:16:11;20.80;81.70
152;DHT22;68;48.792;9.164;2022-09-03T09:18:52;20.90;81.80
152;DHT22;68;48.792;9.164;2022-09-03T09:21:26;21.10;80.30
152;DHT22;68;48.792;9.164;2022-09-03T09:24:00;21.40;80.30
152;DHT22;68;48.792;9.164;2022-09-03T09:26:28;21.40;78.90
152;DHT22;68;48.792;9.164;2022-09-03T09:28:59;21.50;79.10
152;DHT22;68;48.792;9.164;2022-09-03T09:31:27;21.50;80.50
152;DHT22;68;48.792;9.164;2022-09-03T09:33:58;21.40;79.30
152;DHT22;68;48.792;9.164;2022-09-03T09:36:27;21.20;79.50
152;DHT22;68;48.792;9.164;2022-09-03T09:38:55;21.20;79.20
152;DHT22;68;48.792;9.164;2022-09-03T09:41:33;21.50;78.80
152;DHT22;68;48.792;9.164;2022-09-03T09:44:02;21.60;79.00
152;DHT22;68;48.792;9.164;2022-09-03T09:46:34;21.80;78.20
152;DHT22;68;48.792;9.164;2022-09-03T09:49:01;21.80;76.80
152;DHT22;68;48.792;9.164;2022-09-03T09:51:30;21.70;77.50
152;DHT22;68;48.792;9.164;2022-09-03T09:54:03;21.70;77.50
152;DHT22;68;48.792;9.164;2022-09-03T09:56:30;21.50;76.80
152;DHT22;68;48.792;9.164;2022-09-03T09:59:05;21.60;77.50
152;DHT22;68;48.792;9.164;2022-09-03T10:01:32;21.40;77.80
152;DHT22;68;48.792;9.164;2022-09-03T10:04:07;21.10;77.80
152;DHT22;68;48.792;9.164;2022-09-03T10:06:35;20.80;79.50
152;DHT22;68;48.792;9.164;2022-09-03T10:09:24;20.80;78.50
152;DHT22;68;48.792;9.164;2022-09-03T10:12:01;21.00;78.40
152;DHT22;68;48.792;9.164;2022-09-03T10:14:35;21.20;78.30
152;DHT22;68;48.792;9.164;2022-09-03T10:17:11;21.00;78.40
152;DHT22;68;48.792;9.164;2022-09-03T10:19:45;21.10;78.50
152;DHT22;68;48.792;9.164;2022-09-03T10:22:39;21.30;76.90
152;DHT22;68;48.792;9.164;2022-09-03T10:25:14;21.50;76.70
152;DHT22;68;48.792;9.164;2022-09-03T10:27:41;21.40;75.10
152;DHT22;68;48.792;9.164;2022-09-03T10:30:10;21.40;77.20
152;DHT22;68;48.792;9.164;2022-09-03T10:32:42;21.40;76.80
152;DHT22;68;48.792;9.164;2022-09-03T10:35:18;21.40;76.10
152;DHT22;68;48.792;9.164;2022-09-03T10:37:54;21.70;76.10
152;DHT22;68;48.792;9.164;2022-09-03T10:40:30;21.60;75.50
152;DHT22;68;48.792;9.164;2022-09-03T10:43:16;21.50;75.10
152;DHT22;68;48.792;9.164;2022-09-03T10:45:52;21.80;76.50
152;DHT22;68;48.792;9.164;2022-09-03T10:48:45;21.80;74.30
152;DHT22;68;48.792;9.164;2022-09-03T10:51:18;21.90;75.10
152;DHT22;68;48.792;9.164;2022-09-03T10:53:59;22.30;75.40
152;DHT22;68;48.792;9.164;2022-09-03T10:56:35;22.00;74.00
152;DHT22;68;48.792;9.164;2022-09-03T10:59:21;22.20;74.50
152;DHT22;68;48.792;9.164;2022-09-03T11:02:02;22.10;75.10
152;DHT22;68;48.792;9.164;2022-09-03T11:04:40;22.20;74.40
152;DHT22;68;48.792;9.164;2022-09-03T11:07:12;22.50;73.30
152;DHT22;68;48.792;9.164;2022-09-03T11:09:42;22.30;73.90
152;DHT22;68;48.792;9.164;2022-09-03T11:12:18;22.40;74.40
152;DHT22;68;48.792;9.164;2022-09-03T11:14:50;22.60;74.70
152;DHT22;68;48.792;9.164;2022-09-03T11:17:24;22.60;74.30
152;DHT22;68;48.792;9.164;2022-09-03T11:19:56;22.80;74.00
152;DHT22;68;48.792;9.164;2022-09-03T11:22:26;23.10;72.80
152;DHT22;68;48.792;9.164;2022-09-03T11:24:57;23.30;72.20
152;DHT22;68;48.792;9.164;2022-09-03T11:27:42;23.10;72.40
152;DHT22;68;48.792;9.164;2022-09-03T11:30:13;23.10;72.90
152;DHT22;68;48.792;9.164;2022-09-03T11:32:46;23.00;73.10
152;DHT22;68;48.792;9.164;2022-09-03T11:35:16;23.20;73.40
152;DHT22;68;48.792;9.164;2022-09-03T11:37:51;23.20;72.30
152;DHT22;68;48.792;9.164;2022-09-03T11:40:19;23.20;72.20
152;DHT22;68;48.792;9.164;2022-09-03T11:43:05;23.00;71.70
152;DHT22;68;48.792;9.164;2022-09-03T11:45:37;22.90;72.50
152;DHT22;68;48.792;9.164;2022-09-03T11:48:19;22.90;72.50
152;DHT22;68;48.792;9.164;2022-09-03T11:50:55;22.60;73.90
152;DHT22;68;48.792;9.164;2022-09-03T11:53:24;22.50;75.50
152;DHT22;68;48.792;9.164;2022-09-03T11:55:54;22.60;73.70
152;DHT22;68;48.792;9.164;2022-09-03T11:58:25;22.40;75.00
152;DHT22;68;48.792;9.164;2022-09-03T12:00:54;22.60;73.80
152;DHT22;68;48.792;9.164;2022-09-03T12:03:24;22.60;74.00
152;DHT22;68;48.792;9.164;2022-09-03T12:06:08;22.60;75.10
152;DHT22;68;48.792;9.164;2022-09-03T12:09:01;22.50;75.70
152;DHT22;68;48.792;9.164;2022-09-03T12:11:40;22.60;76.10
152;DHT22;68;48.792;9.164;2022-09-03T12:14:19;22.50;74.60
152;DHT22;68;48.792;9.164;2022-09-03T12:17:10;22.60;75.40
152;DHT22;68;48.792;9.164;2022-09-03T12:19:46;22.70;75.30
152;DHT22;68;48.792;9.164;2022-09-03T12:22:16;22.50;75.00
152;DHT22;68;48.792;9.164;2022-09-03T12:24:44;22.50;76.70
152;DHT22;68;48.792;9.164;2022-09-03T12:27:15;22.60;75.90
152;DHT22;68;48.792;9.164;2022-09-03T12:29:53;22.50;77.40
152;DHT22;68;48.792;9.164;2022-09-03T12:32:22;22.40;77.20
152;DHT22;68;48.792;9.164;2022-09-03T12:34:50;22.10;78.10
152;DHT22;68;48.792;9.164;2022-09-03T12:37:20;22.10;79.70
152;DHT22;68;48.792;9.164;2022-09-03T12:39:52;21.90;79.40
152;DHT22;68;48.792;9.164;2022-09-03T12:42:23;21.70;83.10
152;DHT22;68;48.792;9.164;2022-09-03T12:44:53;21.40;86.20
152;DHT22;68;48.792;9.164;2022-09-03T12:47:22;21.20;89.40
152;DHT22;68;48.792;9.164;2022-09-03T12:49:50;20.80;90.90
152;DHT22;68;48.792;9.164;2022-09-03T12:52:20;20.60;91.70
152;DHT22;68;48.792;9.164;2022-09-03T12:54:52;20.20;91.60
152;DHT22;68;48.792;9.164;2022-09-03T12:57:22;19.90;92.20
152;DHT22;68;48.792;9.164;2022-09-03T12:59:55;19.70;91.90
152;DHT22;68;48.792;9.164;2022-09-03T13:02:26;19.50;89.90
152;DHT22;68;48.792;9.164;2022-09-03T13:04:55;19.40;84.80
152;DHT22;68;48.792;9.164;2022-09-03T13:07:29;19.20;80.50
152;DHT22;68;48.792;9.164;2022-09-03T13:10:02;19.00;72.80
152;DHT22;68;48.792;9.164;2022-09-03T13:12:32;19.00;73.90
152;DHT22;68;48.792;9.164;2022-09-03T13:15:07;19.20;71.30
152;DHT22;68;48.792;9.164;2022-09-03T13:17:56;19.40;79.60
152;DHT22;68;48.792;9.164;2022-09-03T13:20:47;19.40;84.30
152;DHT22;68;48.792;9.164;2022-09-03T13:23:35;19.40;84.60
152;DHT22;68;48.792;9.164;2022-09-03T13:26:14;19.50;84.90
152;DHT22;68;48.792;9.164;2022-09-03T13:29:04;19.60;82.40
152;DHT22;68;48.792;9.164;2022-09-03T13:31:41;19.70;84.20
152;DHT22;68;48.792;9.164;2022-09-03T13:34:15;19.80;89.80
152;DHT22;68;48.792;9.164;2022-09-03T13:36:47;20.10;87.70
152;DHT22;68;48.792;9.164;2022-09-03T13:39:23;20.20;89.60
152;DHT22;68;48.792;9.164;2022-09-03T13:41:55;20.50;86.70
152;DHT22;68;48.792;9.164;2022-09-03T13:44:36;20.80;90.80
152;DHT22;68;48.792;9.164;2022-09-03T13:47:11;20.90;90.40
152;DHT22;68;48.792;9.164;2022-09-03T13:49:48;20.90;90.80
152;DHT22;68;48.792;9.164;2022-09-03T13:52:37;21.00;90.80
152;DHT22;68;48.792;9.164;2022-09-03T13:55:10;20.80;91.70
152;DHT22;68;48.792;9.164;2022-09-03T13:57:45;20.70;91.80
152;DHT22;68;48.792;9.164;2022-09-03T14:00:22;20.30;89.10
152;DHT22;68;48.792;9.164;2022-09-03T14:02:54;20.40;88.40
152;DHT22;68;48.792;9.164;2022-09-03T14:05:37;20.40;89.40
152;DHT22;68;48.792;9.164;2022-09-03T14:08:14;20.40;90.80
152;DHT22;68;48.792;9.164;2022-09-03T14:11:00;20.60;92.30
152;DHT22;68;48.792;9.164;2022-09-03T14:13:40;20.50;92.70
152;DHT22;68;48.792;9.164;2022-09-03T14:16:15;20.30;91.90
152;DHT22;68;48.792;9.164;2022-09-03T14:18:53;20.30;91.50
152;DHT22;68;48.792;9.164;2022-09-03T14:21:26;20.40;91.30
152;DHT22;68;48.792;9.164;2022-09-03T14:24:01;20.40;92.70
152;DHT22;68;48.792;9.164;2022-09-03T14:26:32;20.40;90.60
152;DHT22;68;48.792;9.164;2022-09-03T14:29:03;20.50;91.50
152;DHT22;68;48.792;9.164;2022-09-03T14:31:47;20.50;91.60
152;DHT22;68;48.792;9.164;2022-09-03T14:34:29;20.40;91.30
152;DHT22;68;48.792;9.164;2022-09-03T14:37:06;20.30;90.50
152;DHT22;68;48.792;9.164;2022-09-03T14:39:43;20.30;91.90
152;DHT22;68;48.792;9.164;2022-09-03T14:42:37;20.60;92.20
152;DHT22;68;48.792;9.164;2022-09-03T14:45:29;20.50;90.60
152;DHT22;68;48.792;9.164;2022-09-03T14:48:11;20.60;90.50
152;DHT22;68;48.792;9.164;2022-09-03T14:50:54;20.50;89.50
152;DHT22;68;48.792;9.164;2022-09-03T14:53:35;20.40;93.30
152;DHT22;68;48.792;9.164;2022-09-03T14:56:26;20.20;91.70
152;DHT22;68;48.792;9.164;2022-09-03T14:59:14;20.20;90.80
152;DHT22;68;48.792;9.164;2022-09-03T15:01:47;20.10;90.30
152;DHT22;68;48.792;9.164;2022-09-03T15:04:49;20.00;89.10
152;DHT22;68;48.792;9.164;2022-09-03T15:07:30;20.20;90.30
152;DHT22;68;48.792;9.164;2022-09-03T15:10:06;20.20;91.20
152;DHT22;68;48.792;9.164;2022-09-03T15:12:40;20.30;92.40
152;DHT22;68;48.792;9.164;2022-09-03T15:15:12;20.30;91.80
152;DHT22;68;48.792;9.164;2022-09-03T15:17:49;20.30;91.60
152;DHT22;68;48.792;9.164;2022-09-03T15:20:25;20.40;91.60
152;DHT22;68;48.792;9.164;2022-09-03T15:23:23;20.40;90.50
152;DHT22;68;48.792;9.164;2022-09-03T15:26:29;20.60;91.10
152;DHT22;68;48.792;9.164;2022-09-03T15:29:20;20.30;92.60
152;DHT22;68;48.792;9.164;2022-09-03T15:31:53;20.20;92.80
152;DHT22;68;48.792;9.164;2022-09-03T15:34:36;20.00;92.90
152;DHT22;68;48.792;9.164;2022-09-03T15:37:10;20.10;92.90
152;DHT22;68;48.792;9.164;2022-09-03T15:39:43;20.20;91.90
152;DHT22;68;48.792;9.164;2022-09-03T15:42:17;20.40;91.90
152;DHT22;68;48.792;9.164;2022-09-03T15:44:48;20.40;93.30
152;DHT22;68;48.792;9.164;2022-09-03T15:47:35;20.30;90.70
152;DHT22;68;48.792;9.164;2022-09-03T15:50:09;20.20;88.90
152;DHT22;68;48.792;9.164;2022-09-03T15:52:51;20.10;91.50
152;DHT22;68;48.792;9.164;2022-09-03T15:55:30;20.40;91.40
152;DHT22;68;48.792;9.164;2022-09-03T15:58:01;20.40;92.90
152;DHT22;68;48.792;9.164;2022-09-03T16:00:40;20.30;92.90
152;DHT22;68;48.792;9.164;2022-09-03T16:03:18;20.40;92.20
152;DHT22;68;48.792;9.164;2022-09-03T16:05:53;20.40;92.20
152;DHT22;68;48.792;9.164;2022-09-03T16:08:23;20.30;92.40
152;DHT22;68;48.792;9.164;2022-09-03T16:11:00;20.20;92.60
152;DHT22;68;48.792;9.164;2022-09-03T16:13:54;20.10;92.50
152;DHT22;68;48.792;9.164;2022-09-03T16:16:24;20.10;91.20
152;DHT22;68;48.792;9.164;2022-09-03T16:18:57;20.20;90.50
152;DHT22;68;48.792;9.164;2022-09-03T16:21:31;20.20;91.20
152;DHT22;68;48.792;9.164;2022-09-03T16:24:04;20.00;91.90
152;DHT22;68;48.792;9.164;2022-09-03T16:26:40;19.90;91.30
152;DHT22;68;48.792;9.164;2022-09-03T16:29:12;19.90;91.20
152;DHT22;68;48.792;9.164;2022-09-03T16:34:49;19.90;89.70
152;DHT22;68;48.792;9.164;2022-09-03T16:37:24;20.00;89.70
152;DHT22;68;48.792;9.164;2022-09-03T16:39:59;20.20;89.30
152;DHT22;68;48.792;9.164;2022-09-03T16:42:37;20.00;89.10
152;DHT22;68;48.792;9.164;2022-09-03T16:45:16;19.70;88.70
152;DHT22;68;48.792;9.164;2022-09-03T16:48:03;19.50;86.60
152;DHT22;68;48.792;9.164;2022-09-03T16:50:44;19.50;85.30
152;DHT22;68;48.792;9.164;2022-09-03T16:53:15;19.50;84.60
152;DHT22;68;48.792;9.164;2022-09-03T16:55:59;19.60;85.60
152;DHT22;68;48.792;9.164;2022-09-03T16:58:40;19.60;85.70
152;DHT22;68;48.792;9.164;2022-09-03T17:01:19;19.90;85.60
152;DHT22;68;48.792;9.164;2022-09-03T17:04:02;20.50;88.90
152;DHT22;68;48.792;9.164;2022-09-03T17:06:45;20.80;90.60
152;DHT22;68;48.792;9.164;2022-09-03T17:09:25;21.10;92.40
152;DHT22;68;48.792;9.164;2022-09-03T17:12:03;21.20;92.60
152;DHT22;68;48.792;9.164;2022-09-03T17:17:56;21.40;92.40
152;DHT22;68;48.792;9.164;2022-09-03T17:20:43;21.10;92.20
152;DHT22;68;48.792;9.164;2022-09-03T17:23:27;21.10;92.70
152;DHT22;68;48.792;9.164;2022-09-03T17:26:03;21.30;92.70
152;DHT22;68;48.792;9.164;2022-09-03T17:28:43;21.30;92.80
152;DHT22;68;48.792;9.164;2022-09-03T17:31:23;20.60;92.60
152;DHT22;68;48.792;9.164;2022-09-03T17:34:04;20.00;91.30
152;DHT22;68;48.792;9.164;2022-09-03T17:36:36;19.80;91.30
152;DHT22;68;48.792;9.164;2022-09-03T17:39:31;19.80;91.10
152;DHT22;68;48.792;9.164;2022-09-03T17:42:03;19.90;90.50